Time;durP1;ratioP1;P1;durP2;ratioP2;P2;SDS_P1;SDS_P2;PMS_P1;PMS_P2;Temp;Humidity;BMP_temperature;BMP_pressure;BME280_temperature;BME280_humidity;BME280_pressure;Samples;Min_cycle;Max_cycle;Signal;HPM_P1;HPM_P2
2023/03/01 00:01:09;;;;;;;38.38;19.58;;;;;;;;;;5047997;28;20592;-86
2023/03/01 00:03:35;;;;;;;33.97;17.38;;;;;;;;;;5047786;28;20044;-86
2023/03/01 00:06:02;;;;;;;35.55;18.17;;;;;;;;;;5046862;28;20116;-86
2023/03/01 00:08:29;;;;;;;23.23;14.20;;;;;;;;;;5047424;28;20029;-86
2023/03/01 00:11:13;;;;;;;24.30;14.65;;;;;;;;;;5047294;28;20052;-86
2023/03/01 00:13:40;;;;;;;26.42;13.55;;;;;;;;;;5046627;28;20060;-84
2023/03/01 00:16:09;;;;;;;27.30;14.82;;;;;;;;;;5045831;28;20031;-85
2023/03/01 00:18:34;;;;;;;24.05;15.30;;;;;;;;;;5047282;28;20025;-86
2023/03/01 00:21:00;;;;;;;28.90;16.50;;;;;;;;;;5047226;28;20044;-86
2023/03/01 00:23:26;;;;;;;29.55;16.35;;;;;;;;;;5045899;28;20029;-86
2023/03/01 00:25:52;;;;;;;30.83;17.30;;;;;;;;;;5046640;28;20088;-86
2023/03/01 00:28:18;;;;;;;27.83;16.50;;;;;;;;;;5046567;28;20034;-86
2023/03/01 00:30:45;;;;;;;30.27;17.02;;;;;;;;;;5046530;28;20033;-85
2023/03/01 00:33:11;;;;;;;32.78;16.05;;;;;;;;;;5046457;28;20041;-85
2023/03/01 00:35:36;;;;;;;28.25;15.57;;;;;;;;;;5044699;28;20645;-86
2023/03/01 00:38:03;;;;;;;22.90;13.55;;;;;;;;;;5046469;28;20175;-86
2023/03/01 00:40:31;;;;;;;23.30;14.25;;;;;;;;;;5045609;28;20106;-85
2023/03/01 00:42:57;;;;;;;22.55;13.95;;;;;;;;;;5044661;28;20038;-86
2023/03/01 00:45:23;;;;;;;24.27;13.85;;;;;;;;;;5045784;28;20061;-86
2023/03/01 00:50:57;;;;;;;22.25;13.63;;;;;;;;;;5020606;28;20525;-85
2023/03/01 00:53:51;;;;;;;23.38;13.63;;;;;;;;;;5024936;28;20041;-84
2023/03/01 01:00:40;;;;;;;26.80;13.85;;;;;;;;;;5013516;28;20422;-84
2023/03/01 01:03:22;;;;;;;23.73;13.90;;;;;;;;;;5012098;28;20050;-85
2023/03/01 01:06:14;;;;;;;25.30;14.48;;;;;;;;;;4996373;28;20064;-84
2023/03/01 01:08:53;;;;;;;30.30;15.75;;;;;;;;;;4974903;28;20052;-84
2023/03/01 01:11:36;;;;;;;27.40;15.63;;;;;;;;;;4995341;28;20034;-84
2023/03/01 01:14:24;;;;;;;26.50;14.52;;;;;;;;;;4994649;28;20103;-84
2023/03/01 01:16:57;;;;;;;26.83;15.18;;;;;;;;;;4995056;28;20034;-86
2023/03/01 01:20:13;;;;;;;29.05;16.27;;;;;;;;;;4995084;28;20405;-85
2023/03/01 01:22:53;;;;;;;42.60;21.20;;;;;;;;;;4993568;28;20099;-83
2023/03/01 01:26:08;;;;;;;39.00;19.40;;;;;;;;;;5013600;28;20030;-84
2023/03/01 01:28:55;;;;;;;37.25;18.42;;;;;;;;;;5015751;28;20057;-85
2023/03/01 01:31:49;;;;;;;33.10;17.30;;;;;;;;;;4997441;28;20087;-84
2023/03/01 01:34:23;;;;;;;25.77;14.60;;;;;;;;;;4990881;28;20042;-85
2023/03/01 01:36:54;;;;;;;26.90;14.55;;;;;;;;;;4997626;28;20046;-85
2023/03/01 01:39:41;;;;;;;26.63;15.70;;;;;;;;;;4997194;28;20041;-84
2023/03/01 01:42:35;;;;;;;28.50;14.88;;;;;;;;;;4998437;28;20080;-85
2023/03/01 01:45:31;;;;;;;30.60;15.90;;;;;;;;;;4984174;28;20044;-84
2023/03/01 01:48:34;;;;;;;;;;;;;;;;;;;;;
2023/03/01 01:51:18;;;;;;;26.48;14.30;;;;;;;;;;4987135;28;20065;-84
2023/03/01 01:54:02;;;;;;;24.60;14.38;;;;;;;;;;4999428;28;20102;-85
2023/03/01 01:56:39;;;;;;;27.00;14.65;;;;;;;;;;4997648;28;20050;-84
2023/03/01 01:59:44;;;;;;;26.60;14.73;;;;;;;;;;5007564;28;20046;-83
2023/03/01 02:02:58;;;;;;;;;;;;;;;;;;;;;
2023/03/01 02:06:36;;;;;;;26.65;14.43;;;;;;;;;;5017343;28;20183;-84
2023/03/01 02:09:30;;;;;;;27.35;14.73;;;;;;;;;;4941797;29;20047;-84
2023/03/01 02:12:13;;;;;;;25.33;14.27;;;;;;;;;;4955889;29;20038;-85
2023/03/01 02:14:58;;;;;;;26.40;15.10;;;;;;;;;;4939182;29;20054;-84
2023/03/01 02:17:36;;;;;;;26.45;15.63;;;;;;;;;;4976471;28;20450;-85
2023/03/01 02:20:26;;;;;;;28.10;15.15;;;;;;;;;;4997889;28;20521;-84
2023/03/01 02:23:20;;;;;;;28.73;14.85;;;;;;;;;;4997443;28;20593;-84
2023/03/01 02:26:28;;;;;;;26.88;15.27;;;;;;;;;;4997708;28;20034;-85
2023/03/01 02:28:56;;;;;;;28.65;15.70;;;;;;;;;;4997171;28;20243;-85
2023/03/01 02:31:55;;;;;;;24.95;14.02;;;;;;;;;;4997387;28;20034;-84
2023/03/01 02:34:33;;;;;;;27.92;14.93;;;;;;;;;;4996248;28;20426;-85
2023/03/01 02:37:16;;;;;;;25.73;14.23;;;;;;;;;;4998495;28;20030;-84
2023/03/01 02:39:57;;;;;;;26.95;14.02;;;;;;;;;;5006653;28;20505;-84
2023/03/01 02:43:16;;;;;;;22.55;13.57;;;;;;;;;;5016987;28;20041;-85
2023/03/01 02:46:23;;;;;;;29.05;13.93;;;;;;;;;;4995867;28;20580;-84
2023/03/01 02:49:19;;;;;;;24.88;13.68;;;;;;;;;;5000193;28;20045;-84
2023/03/01 02:52:18;;;;;;;23.63;13.77;;;;;;;;;;5000945;28;20044;-84
2023/03/01 02:54:58;;;;;;;23.42;12.98;;;;;;;;;;4984397;28;20077;-85
2023/03/01 02:57:31;;;;;;;23.60;13.50;;;;;;;;;;5001665;28;20030;-84
2023/03/01 03:00:19;;;;;;;24.67;13.45;;;;;;;;;;5019267;28;20038;-85
2023/03/01 03:03:00;;;;;;;22.48;13.57;;;;;;;;;;5004621;28;20500;-84
2023/03/01 03:05:31;;;;;;;27.42;13.65;;;;;;;;;;5003453;28;20034;-84
2023/03/01 03:08:11;;;;;;;25.33;13.68;;;;;;;;;;5000095;28;20038;-84
2023/03/01 03:10:51;;;;;;;25.17;14.30;;;;;;;;;;5000674;28;20036;-84
2023/03/01 03:13:29;;;;;;;22.95;13.32;;;;;;;;;;5000371;28;20038;-84
2023/03/01 03:16:06;;;;;;;26.17;13.50;;;;;;;;;;4999880;28;20084;-85
2023/03/01 03:18:32;;;;;;;23.27;13.02;;;;;;;;;;5000364;28;20044;-84
2023/03/01 03:20:59;;;;;;;23.58;12.90;;;;;;;;;;5016987;28;20117;-84
2023/03/01 03:23:25;;;;;;;21.27;12.65;;;;;;;;;;5017281;28;20038;-85
2023/03/01 03:25:53;;;;;;;24.45;13.68;;;;;;;;;;4999655;28;20025;-84
2023/03/01 03:28:25;;;;;;;28.33;13.90;;;;;;;;;;5017432;28;20038;-84
2023/03/01 03:30:53;;;;;;;22.30;13.32;;;;;;;;;;5016805;28;20034;-85
2023/03/01 03:33:21;;;;;;;21.85;12.25;;;;;;;;;;4999153;28;20032;-85
2023/03/01 03:35:52;;;;;;;24.23;13.38;;;;;;;;;;5016596;28;20036;-85
2023/03/01 03:38:22;;;;;;;24.10;13.43;;;;;;;;;;5016168;28;20478;-83
2023/03/01 03:40:50;;;;;;;22.45;12.57;;;;;;;;;;4997070;28;20033;-84
2023/03/01 03:43:19;;;;;;;22.67;12.18;;;;;;;;;;5013708;28;20073;-83
2023/03/01 03:45:56;;;;;;;23.10;13.00;;;;;;;;;;4996053;28;20084;-84
2023/03/01 03:48:30;;;;;;;24.92;12.95;;;;;;;;;;4995779;28;20398;-85
2023/03/01 03:50:56;;;;;;;28.15;14.63;;;;;;;;;;5018790;28;20060;-83
2023/03/01 03:53:32;;;;;;;34.13;18.00;;;;;;;;;;5004717;28;20037;-84
2023/03/01 03:55:59;;;;;;;42.55;19.08;;;;;;;;;;4998954;28;20053;-84
2023/03/01 03:58:25;;;;;;;91.88;36.30;;;;;;;;;;4999799;28;20041;-84
2023/03/01 04:00:56;;;;;;;35.38;16.25;;;;;;;;;;5015995;28;20068;-82
2023/03/01 04:03:32;;;;;;;;;;;;;;;;;;5018825;28;20537;-84
2023/03/01 04:05:59;;;;;;;24.15;13.20;;;;;;;;;;5017725;28;19913;-84
2023/03/01 04:08:31;;;;;;;25.38;13.00;;;;;;;;;;5022462;28;20045;-84
2023/03/01 04:11:25;;;;;;;20.38;12.23;;;;;;;;;;4998852;28;20486;-84
2023/03/01 04:13:49;;;;;;;22.73;12.63;;;;;;;;;;5015931;28;20048;-84
2023/03/01 04:16:17;;;;;;;26.35;13.02;;;;;;;;;;5015177;28;20517;-84
2023/03/01 04:18:43;;;;;;;24.65;13.50;;;;;;;;;;5014800;28;20061;-84
2023/03/01 04:21:11;;;;;;;22.48;12.35;;;;;;;;;;5015957;28;20038;-83
2023/03/01 04:23:37;;;;;;;20.63;12.50;;;;;;;;;;4997515;28;20433;-84
2023/03/01 04:26:06;;;;;;;20.67;12.48;;;;;;;;;;4997531;28;20489;-84
2023/03/01 04:28:38;;;;;;;22.13;12.65;;;;;;;;;;5015087;28;20068;-83
2023/03/01 04:31:12;;;;;;;22.13;12.80;;;;;;;;;;5015650;28;20038;-84
2023/03/01 04:33:42;;;;;;;23.58;13.40;;;;;;;;;;4997644;28;20044;-84
2023/03/01 04:36:08;;;;;;;21.50;12.43;;;;;;;;;;4996768;28;20034;-85
2023/03/01 04:38:38;;;;;;;26.98;13.57;;;;;;;;;;5014635;28;20037;-86
2023/03/01 04:41:09;;;;;;;23.58;13.32;;;;;;;;;;5014237;28;20080;-86
2023/03/01 04:43:35;;;;;;;28.13;13.43;;;;;;;;;;5015791;28;20041;-84
2023/03/01 04:46:07;;;;;;;28.00;12.80;;;;;;;;;;5018228;28;20037;-83
2023/03/01 04:48:35;;;;;;;25.45;13.90;;;;;;;;;;5013012;28;20033;-85
2023/03/01 04:51:01;;;;;;;23.15;13.80;;;;;;;;;;5013046;28;20038;-84
2023/03/01 04:53:28;;;;;;;23.50;13.05;;;;;;;;;;4995811;28;20409;-85
2023/03/01 04:55:55;;;;;;;23.35;12.98;;;;;;;;;;4995074;28;20611;-84
2023/03/01 04:58:26;;;;;;;22.80;12.80;;;;;;;;;;4995328;28;20057;-85
2023/03/01 05:00:52;;;;;;;27.73;14.52;;;;;;;;;;5012669;28;20050;-85
2023/03/01 05:03:18;;;;;;;22.88;14.15;;;;;;;;;;4994888;28;20018;-83
2023/03/01 05:05:45;;;;;;;23.70;13.40;;;;;;;;;;5022732;28;20044;-84
2023/03/01 05:08:17;;;;;;;23.63;13.52;;;;;;;;;;4997836;28;20113;-83
2023/03/01 05:10:53;;;;;;;23.73;13.38;;;;;;;;;;5014835;28;20446;-84
2023/03/01 05:13:22;;;;;;;26.38;13.57;;;;;;;;;;5015531;28;20065;-84
2023/03/01 05:15:57;;;;;;;29.67;13.77;;;;;;;;;;4997853;28;20034;-84
2023/03/01 05:18:25;;;;;;;24.85;13.05;;;;;;;;;;5015147;28;20038;-84
2023/03/01 05:21:05;;;;;;;36.78;17.02;;;;;;;;;;5014928;28;20033;-84
2023/03/01 05:23:32;;;;;;;42.67;21.17;;;;;;;;;;5014498;28;20069;-84
2023/03/01 05:25:59;;;;;;;24.70;14.27;;;;;;;;;;4995801;28;20030;-84
2023/03/01 05:28:25;;;;;;;25.23;14.32;;;;;;;;;;4995971;28;20411;-85
2023/03/01 05:30:51;;;;;;;24.70;14.20;;;;;;;;;;5015013;28;20041;-84
2023/03/01 05:33:17;;;;;;;24.02;13.57;;;;;;;;;;5016385;28;20040;-85
2023/03/01 05:35:44;;;;;;;25.38;13.40;;;;;;;;;;5016078;28;20033;-85
2023/03/01 05:38:13;;;;;;;26.48;13.43;;;;;;;;;;5016400;28;20114;-83
2023/03/01 05:40:40;;;;;;;24.48;12.93;;;;;;;;;;4998717;28;20033;-84
2023/03/01 05:43:05;;;;;;;26.55;14.38;;;;;;;;;;4998514;28;20034;-84
2023/03/01 05:45:34;;;;;;;27.83;14.65;;;;;;;;;;5015945;28;20044;-84
2023/03/01 05:47:59;;;;;;;25.60;14.23;;;;;;;;;;5016163;28;20034;-84
2023/03/01 05:50:28;;;;;;;25.17;14.90;;;;;;;;;;4998548;28;20044;-84
2023/03/01 05:53:02;;;;;;;27.80;14.75;;;;;;;;;;4998345;28;20082;-83
2023/03/01 05:55:29;;;;;;;30.55;15.82;;;;;;;;;;4998093;28;20046;-83
2023/03/01 05:57:55;;;;;;;28.50;15.38;;;;;;;;;;5015440;28;20037;-84
2023/03/01 06:00:24;;;;;;;31.25;15.85;;;;;;;;;;4997881;28;20045;-84
2023/03/01 06:02:51;;;;;;;29.23;15.27;;;;;;;;;;5015409;28;20096;-83
2023/03/01 06:05:17;;;;;;;27.90;15.30;;;;;;;;;;5014840;28;20418;-84
2023/03/01 06:07:43;;;;;;;25.65;14.85;;;;;;;;;;4998027;28;20038;-84
2023/03/01 06:10:11;;;;;;;29.75;15.02;;;;;;;;;;4997802;28;20124;-84
2023/03/01 06:12:38;;;;;;;28.40;16.40;;;;;;;;;;5015426;28;20509;-83
2023/03/01 06:15:05;;;;;;;32.90;17.98;;;;;;;;;;4998328;28;20034;-82
2023/03/01 06:17:37;;;;;;;44.67;21.27;;;;;;;;;;5015629;28;20416;-83
2023/03/01 06:20:08;;;;;;;70.65;26.35;;;;;;;;;;5007556;28;20081;-83
2023/03/01 06:22:34;;;;;;;35.13;17.73;;;;;;;;;;4985526;28;20123;-82
2023/03/01 06:24:59;;;;;;;34.42;17.20;;;;;;;;;;5017694;28;20037;-84
2023/03/01 06:27:25;;;;;;;46.92;21.17;;;;;;;;;;4999766;28;20030;-84
2023/03/01 06:29:50;;;;;;;45.15;24.05;;;;;;;;;;5017116;28;20483;-84
2023/03/01 06:32:16;;;;;;;36.10;20.83;;;;;;;;;;4999349;28;20022;-84
2023/03/01 06:34:41;;;;;;;39.25;19.70;;;;;;;;;;4998827;28;20498;-83
2023/03/01 06:37:07;;;;;;;30.05;18.02;;;;;;;;;;4998852;28;20034;-83
2023/03/01 06:39:33;;;;;;;30.15;16.83;;;;;;;;;;5001214;28;20037;-83
2023/03/01 06:41:58;;;;;;;30.88;15.63;;;;;;;;;;4999231;28;20129;-84
2023/03/01 06:44:24;;;;;;;31.42;17.50;;;;;;;;;;5015713;28;20026;-83
2023/03/01 06:46:50;;;;;;;29.42;16.58;;;;;;;;;;5016112;28;20038;-84
2023/03/01 06:49:17;;;;;;;29.98;16.98;;;;;;;;;;5049738;22;20095;-85
2023/03/01 06:51:43;;;;;;;27.77;15.30;;;;;;;;;;5012327;28;20037;-84
2023/03/01 06:54:09;;;;;;;36.65;17.48;;;;;;;;;;5026985;28;20045;-83
2023/03/01 06:56:35;;;;;;;37.25;17.13;;;;;;;;;;5045164;28;20025;-81
2023/03/01 06:59:02;;;;;;;29.75;16.30;;;;;;;;;;5045489;28;20043;-83
2023/03/01 07:01:28;;;;;;;31.73;14.75;;;;;;;;;;5048165;28;20037;-83
2023/03/01 07:03:54;;;;;;;30.45;16.38;;;;;;;;;;5029258;28;20034;-83
2023/03/01 07:06:19;;;;;;;32.55;16.85;;;;;;;;;;5026812;28;20130;-82
2023/03/01 07:08:45;;;;;;;32.33;17.23;;;;;;;;;;5027155;28;20034;-84
2023/03/01 07:11:10;;;;;;;29.48;15.98;;;;;;;;;;5026390;28;20030;-83
2023/03/01 07:13:36;;;;;;;28.65;15.85;;;;;;;;;;5026849;28;20041;-84
2023/03/01 07:16:01;;;;;;;30.30;15.75;;;;;;;;;;5026468;28;20030;-84
2023/03/01 07:18:27;;;;;;;31.42;16.05;;;;;;;;;;5026247;28;20038;-84
2023/03/01 07:20:52;;;;;;;32.75;17.63;;;;;;;;;;5027021;28;20053;-84
2023/03/01 07:23:18;;;;;;;36.88;17.65;;;;;;;;;;5028243;28;20097;-84
2023/03/01 07:25:44;;;;;;;29.60;14.93;;;;;;;;;;5029327;28;20476;-84
2023/03/01 07:28:09;;;;;;;27.25;15.15;;;;;;;;;;5029492;28;20037;-83
2023/03/01 07:30:35;;;;;;;29.30;15.50;;;;;;;;;;5028538;28;20056;-85
2023/03/01 07:33:00;;;;;;;32.33;15.82;;;;;;;;;;5027760;28;20034;-85
2023/03/01 07:35:27;;;;;;;30.90;15.55;;;;;;;;;;5030097;28;20045;-85
2023/03/01 07:37:53;;;;;;;29.05;15.45;;;;;;;;;;5039753;28;20037;-84
2023/03/01 07:40:19;;;;;;;33.13;16.15;;;;;;;;;;5029428;28;20421;-84
2023/03/01 07:42:44;;;;;;;29.65;15.32;;;;;;;;;;5026518;28;20040;-84
2023/03/01 07:45:10;;;;;;;28.52;15.30;;;;;;;;;;5042285;28;20483;-84
2023/03/01 07:47:36;;;;;;;32.70;15.60;;;;;;;;;;5044324;28;20048;-82
2023/03/01 07:50:03;;;;;;;31.40;15.23;;;;;;;;;;5045210;28;20029;-85
2023/03/01 07:52:30;;;;;;;30.73;16.08;;;;;;;;;;5042681;28;20044;-84
2023/03/01 07:54:56;;;;;;;33.50;16.67;;;;;;;;;;5046792;28;20097;-84
2023/03/01 07:57:21;;;;;;;31.48;16.10;;;;;;;;;;5047208;28;20033;-84
2023/03/01 07:59:47;;;;;;;31.38;16.15;;;;;;;;;;5045585;28;20029;-85
2023/03/01 08:02:12;;;;;;;30.25;15.65;;;;;;;;;;5042156;28;20034;-82
2023/03/01 08:04:38;;;;;;;27.98;15.38;;;;;;;;;;5057218;28;20033;-83
2023/03/01 08:07:05;;;;;;;29.02;16.50;;;;;;;;;;5040420;28;20037;-82
2023/03/01 08:09:31;;;;;;;31.90;15.48;;;;;;;;;;5039855;28;20041;-82
2023/03/01 08:11:59;;;;;;;30.20;15.55;;;;;;;;;;5039956;28;20095;-83
2023/03/01 08:14:25;;;;;;;29.65;15.85;;;;;;;;;;5041162;28;20112;-83
2023/03/01 08:16:50;;;;;;;30.13;16.30;;;;;;;;;;5040192;28;20072;-82
2023/03/01 08:19:16;;;;;;;32.42;17.50;;;;;;;;;;5041970;28;20040;-83
2023/03/01 08:21:42;;;;;;;26.75;14.65;;;;;;;;;;5060227;28;20033;-84
2023/03/01 08:24:10;;;;;;;279.80;100.20;;;;;;;;;;5044607;28;20041;-83
2023/03/01 08:26:36;;;;;;;47.03;22.88;;;;;;;;;;5043687;28;20087;-83
2023/03/01 08:29:02;;;;;;;503.95;236.98;;;;;;;;;;5042332;28;20033;-84
2023/03/01 08:31:37;;;;;;;59.85;26.67;;;;;;;;;;5041110;28;20032;-85
2023/03/01 08:34:09;;;;;;;192.07;89.45;;;;;;;;;;5041717;28;20037;-84
2023/03/01 08:36:37;;;;;;;32.65;17.58;;;;;;;;;;5024172;28;20033;-84
2023/03/01 08:39:03;;;;;;;32.38;17.20;;;;;;;;;;5041020;28;20025;-83
2023/03/01 08:41:29;;;;;;;32.83;16.83;;;;;;;;;;5043710;28;20501;-84
2023/03/01 08:43:58;;;;;;;38.47;17.33;;;;;;;;;;5044973;28;20033;-83
2023/03/01 08:46:28;;;;;;;35.92;17.52;;;;;;;;;;5059495;28;20080;-84
2023/03/01 08:48:54;;;;;;;66.00;30.88;;;;;;;;;;5025163;28;20056;-83
2023/03/01 08:51:20;;;;;;;36.97;18.05;;;;;;;;;;5044946;28;20402;-83
2023/03/01 08:53:47;;;;;;;38.22;18.67;;;;;;;;;;5026649;28;20038;-84
2023/03/01 08:56:13;;;;;;;70.53;36.45;;;;;;;;;;5043155;28;20037;-84
2023/03/01 08:58:41;;;;;;;38.58;19.55;;;;;;;;;;5042915;28;20116;-83
2023/03/01 09:01:11;;;;;;;39.65;20.17;;;;;;;;;;5043987;28;20108;-84
2023/03/01 09:03:37;;;;;;;33.05;16.45;;;;;;;;;;5046848;28;20174;-84
2023/03/01 09:06:05;;;;;;;34.40;17.88;;;;;;;;;;5051570;28;20031;-84
2023/03/01 09:08:33;;;;;;;33.92;17.13;;;;;;;;;;5032781;28;20041;-84
2023/03/01 09:11:05;;;;;;;30.42;16.75;;;;;;;;;;5049468;28;20029;-84
2023/03/01 09:13:33;;;;;;;40.30;18.65;;;;;;;;;;5048766;28;20124;-84
2023/03/01 09:16:01;;;;;;;33.40;18.27;;;;;;;;;;5049594;28;20068;-84
2023/03/01 09:18:27;;;;;;;33.70;17.83;;;;;;;;;;5049702;28;20444;-84
2023/03/01 09:20:54;;;;;;;31.92;16.77;;;;;;;;;;5049085;28;20030;-84
2023/03/01 09:23:21;;;;;;;34.55;16.40;;;;;;;;;;5049538;28;20115;-84
2023/03/01 09:25:46;;;;;;;31.67;17.00;;;;;;;;;;5031998;28;20033;-84
2023/03/01 09:28:12;;;;;;;33.95;17.33;;;;;;;;;;5050102;28;20044;-82
2023/03/01 09:30:37;;;;;;;29.20;16.27;;;;;;;;;;5053476;28;20045;-83
2023/03/01 09:33:03;;;;;;;29.08;16.40;;;;;;;;;;5047964;28;20085;-84
2023/03/01 09:35:28;;;;;;;28.45;15.88;;;;;;;;;;5045654;28;20042;-84
2023/03/01 09:37:54;;;;;;;30.38;17.05;;;;;;;;;;5047430;28;20108;-84
2023/03/01 09:40:23;;;;;;;30.50;16.83;;;;;;;;;;5049839;28;20402;-84
2023/03/01 09:42:55;;;;;;;33.40;18.02;;;;;;;;;;5046974;28;20033;-85
2023/03/01 09:45:43;;;;;;;30.00;16.23;;;;;;;;;;5046719;28;20033;-86
2023/03/01 09:48:17;;;;;;;30.05;15.77;;;;;;;;;;5045663;28;20029;-83
2023/03/01 09:50:46;;;;;;;26.67;15.00;;;;;;;;;;5042763;28;20091;-85
2023/03/01 09:53:18;;;;;;;29.40;16.80;;;;;;;;;;5042620;28;20072;-84
2023/03/01 09:56:05;;;;;;;32.00;16.73;;;;;;;;;;5023377;28;20045;-85
2023/03/01 09:58:52;;;;;;;27.88;15.85;;;;;;;;;;5044258;28;20041;-84
2023/03/01 10:01:29;;;;;;;29.98;15.80;;;;;;;;;;5045797;28;20130;-85
2023/03/01 10:04:32;;;;;;;31.10;16.38;;;;;;;;;;5046227;28;20090;-86
2023/03/01 10:07:04;;;;;;;26.15;15.57;;;;;;;;;;5042938;28;20043;-86
2023/03/01 10:09:34;;;;;;;27.63;15.10;;;;;;;;;;5042761;28;20201;-84
2023/03/01 10:12:02;;;;;;;31.65;15.88;;;;;;;;;;5044143;28;20482;-84
2023/03/01 10:14:43;;;;;;;34.47;16.70;;;;;;;;;;5043406;28;20026;-84
2023/03/01 10:17:15;;;;;;;30.75;17.27;;;;;;;;;;5041992;28;20052;-85
2023/03/01 10:19:43;;;;;;;36.75;16.48;;;;;;;;;;5042582;28;20124;-84
2023/03/01 10:22:17;;;;;;;30.67;15.82;;;;;;;;;;5042569;28;20461;-85
2023/03/01 10:24:42;;;;;;;;;;;;;;;;;;5043092;28;20044;-85
2023/03/01 10:27:23;;;;;;;26.20;14.68;;;;;;;;;;5039875;28;19909;-84
2023/03/01 10:30:15;;;;;;;48.17;25.15;;;;;;;;;;5024015;28;20060;-85
2023/03/01 10:32:42;;;;;;;32.38;18.00;;;;;;;;;;5040292;28;20029;-85
2023/03/01 10:35:18;;;;;;;28.27;16.45;;;;;;;;;;5039629;28;20053;-83
2023/03/01 10:38:04;;;;;;;52.25;29.52;;;;;;;;;;5039651;28;20030;-85
2023/03/01 10:40:31;;;;;;;25.48;14.77;;;;;;;;;;5038828;28;20037;-84
2023/03/01 10:43:05;;;;;;;24.83;12.85;;;;;;;;;;5038834;28;20080;-84
2023/03/01 10:45:38;;;;;;;26.35;15.32;;;;;;;;;;5041439;28;20473;-86
2023/03/01 10:48:13;;;;;;;35.72;17.33;;;;;;;;;;5022788;28;20038;-83
2023/03/01 10:50:41;;;;;;;46.88;21.00;;;;;;;;;;5039151;28;20387;-83
2023/03/01 10:53:31;;;;;;;41.50;20.45;;;;;;;;;;5039250;28;20021;-84
2023/03/01 10:56:06;;;;;;;35.30;17.33;;;;;;;;;;5041352;28;20037;-85
2023/03/01 10:58:33;;;;;;;34.38;17.48;;;;;;;;;;5024024;28;20033;-85
2023/03/01 11:01:25;;;;;;;34.22;18.27;;;;;;;;;;5057553;28;20108;-85
2023/03/01 11:04:06;;;;;;;38.35;17.10;;;;;;;;;;5040566;28;20135;-84
2023/03/01 11:06:33;;;;;;;32.90;17.10;;;;;;;;;;5041199;28;20038;-85
2023/03/01 11:09:23;;;;;;;33.33;17.73;;;;;;;;;;5023907;28;20569;-85
2023/03/01 11:11:57;;;;;;;30.23;15.23;;;;;;;;;;5040222;28;20048;-85
2023/03/01 11:14:23;;;;;;;31.35;15.77;;;;;;;;;;5022921;28;20075;-84
2023/03/01 11:16:59;;;;;;;29.42;15.68;;;;;;;;;;5039398;28;20456;-84
2023/03/01 11:19:25;;;;;;;35.78;18.27;;;;;;;;;;5038332;28;20033;-82
2023/03/01 11:22:00;;;;;;;97.22;40.78;;;;;;;;;;5040050;28;20072;-84
2023/03/01 11:24:35;;;;;;;34.40;18.15;;;;;;;;;;5037502;28;20124;-85
2023/03/01 11:27:03;;;;;;;32.17;16.88;;;;;;;;;;5039103;28;20033;-85
2023/03/01 11:29:35;;;;;;;30.33;16.55;;;;;;;;;;5039354;28;20028;-84
2023/03/01 11:32:05;;;;;;;63.58;30.13;;;;;;;;;;5039339;28;20037;-84
2023/03/01 11:35:19;;;;;;;35.80;18.13;;;;;;;;;;5040201;28;20037;-84
2023/03/01 11:38:01;;;;;;;40.25;18.83;;;;;;;;;;5030738;28;20437;-84
2023/03/01 11:40:50;;;;;;;34.83;16.95;;;;;;;;;;5040193;28;20030;-85
2023/03/01 11:43:41;;;;;;;33.58;16.70;;;;;;;;;;5041518;28;20037;-84
2023/03/01 11:46:31;;;;;;;38.05;19.27;;;;;;;;;;5039632;28;20044;-85
2023/03/01 11:49:02;;;;;;;33.25;17.25;;;;;;;;;;5039446;28;20092;-84
2023/03/01 11:52:05;;;;;;;36.13;18.52;;;;;;;;;;5041177;28;20037;-85
2023/03/01 11:54:46;;;;;;;37.20;17.75;;;;;;;;;;5022983;28;20029;-84
2023/03/01 11:57:17;;;;;;;38.15;19.83;;;;;;;;;;5023503;28;20123;-85
2023/03/01 11:59:57;;;;;;;35.97;17.23;;;;;;;;;;5040289;28;20502;-85
2023/03/01 12:02:32;;;;;;;30.75;16.92;;;;;;;;;;5038537;28;20041;-84
2023/03/01 12:05:16;;;;;;;32.58;16.88;;;;;;;;;;5037955;28;20044;-85
2023/03/01 12:08:00;;;;;;;31.48;15.85;;;;;;;;;;5038234;28;20044;-85
2023/03/01 12:10:27;;;;;;;32.95;17.45;;;;;;;;;;5038919;28;20048;-85
2023/03/01 12:12:53;;;;;;;33.22;16.42;;;;;;;;;;5039853;28;20030;-84
2023/03/01 12:15:40;;;;;;;34.67;17.48;;;;;;;;;;5038671;28;20044;-84
2023/03/01 12:18:08;;;;;;;41.05;22.45;;;;;;;;;;5038799;28;20038;-84
2023/03/01 12:20:52;;;;;;;34.90;17.55;;;;;;;;;;5022870;28;20037;-85
2023/03/01 12:23:43;;;;;;;41.08;20.40;;;;;;;;;;5038594;28;20063;-84
2023/03/01 12:26:20;;;;;;;37.75;20.15;;;;;;;;;;5038858;28;20037;-85
2023/03/01 12:28:48;;;;;;;43.97;22.13;;;;;;;;;;5039452;28;20038;-83
2023/03/01 12:31:33;;;;;;;49.95;23.90;;;;;;;;;;5039864;28;20535;-83
2023/03/01 12:34:11;;;;;;;37.63;19.08;;;;;;;;;;5042865;28;20033;-83
2023/03/01 12:37:10;;;;;;;37.28;18.02;;;;;;;;;;5028792;28;20041;-83
2023/03/01 12:40:16;;;;;;;45.20;21.75;;;;;;;;;;5046345;28;20037;-83
2023/03/01 12:42:58;;;;;;;54.25;24.95;;;;;;;;;;5044367;28;20033;-84
2023/03/01 12:45:50;;;;;;;49.97;23.45;;;;;;;;;;5044960;28;20121;-83
2023/03/01 12:48:40;;;;;;;32.55;18.23;;;;;;;;;;5045528;28;20045;-83
2023/03/01 12:51:10;;;;;;;34.58;17.85;;;;;;;;;;5035378;23;20042;-85
2023/03/01 12:53:43;;;;;;;39.03;19.55;;;;;;;;;;4995315;28;20041;-84
2023/03/01 12:56:12;;;;;;;34.60;17.52;;;;;;;;;;4994085;28;20121;-83
2023/03/01 12:59:09;;;;;;;36.45;18.55;;;;;;;;;;4976678;28;20089;-82
2023/03/01 13:01:48;;;;;;;36.05;18.48;;;;;;;;;;4989950;28;20039;-83
2023/03/01 13:04:40;;;;;;;34.97;17.40;;;;;;;;;;4993907;28;20068;-82
2023/03/01 13:07:30;;;;;;;33.65;17.42;;;;;;;;;;4986395;28;20061;-83
2023/03/01 13:10:30;;;;;;;33.92;17.65;;;;;;;;;;4994638;28;20050;-83
2023/03/01 13:12:56;;;;;;;35.45;19.90;;;;;;;;;;4994636;28;20109;-83
2023/03/01 13:15:25;;;;;;;34.20;18.13;;;;;;;;;;4994638;28;20489;-83
2023/03/01 13:18:25;;;;;;;34.15;18.88;;;;;;;;;;4993412;28;20041;-82
2023/03/01 13:20:54;;;;;;;32.75;16.98;;;;;;;;;;4993835;28;20498;-86
2023/03/01 13:23:22;;;;;;;37.83;18.63;;;;;;;;;;4995645;28;20414;-83
2023/03/01 13:25:57;;;;;;;36.95;18.88;;;;;;;;;;4995561;28;20038;-85
2023/03/01 13:28:31;;;;;;;37.63;20.23;;;;;;;;;;4994272;28;20038;-84
2023/03/01 13:30:58;;;;;;;34.63;18.13;;;;;;;;;;4995289;28;20511;-84
2023/03/01 13:33:26;;;;;;;33.50;18.30;;;;;;;;;;4995579;28;20022;-84
2023/03/01 13:35:53;;;;;;;34.38;17.80;;;;;;;;;;4995429;28;20031;-84
2023/03/01 13:38:37;;;;;;;32.00;16.50;;;;;;;;;;4977089;28;20052;-84
2023/03/01 13:41:04;;;;;;;37.80;19.23;;;;;;;;;;4994040;28;20037;-83
2023/03/01 13:43:38;;;;;;;33.33;16.90;;;;;;;;;;4993809;28;20414;-83
2023/03/01 13:46:23;;;;;;;31.35;17.38;;;;;;;;;;4993760;28;20077;-83
2023/03/01 13:48:53;;;;;;;33.35;16.92;;;;;;;;;;4995316;28;20042;-84
2023/03/01 13:51:27;;;;;;;34.03;18.17;;;;;;;;;;4996527;28;20414;-85
2023/03/01 13:53:55;;;;;;;36.80;18.45;;;;;;;;;;4998137;28;20034;-83
2023/03/01 13:56:37;;;;;;;31.83;17.70;;;;;;;;;;4998391;28;20033;-84
2023/03/01 13:59:17;;;;;;;38.10;18.45;;;;;;;;;;4999908;28;20038;-84
2023/03/01 14:01:42;;;;;;;38.85;18.80;;;;;;;;;;4999169;28;20070;-84
2023/03/01 14:04:31;;;;;;;34.08;18.42;;;;;;;;;;4998863;28;20034;-83
2023/03/01 14:07:20;;;;;;;36.15;18.17;;;;;;;;;;4997869;28;20034;-84
2023/03/01 14:09:50;;;;;;;33.85;16.63;;;;;;;;;;4999964;28;20062;-85
2023/03/01 14:12:26;;;;;;;33.97;17.95;;;;;;;;;;4999933;28;20030;-84
2023/03/01 14:14:53;;;;;;;37.35;19.25;;;;;;;;;;4998850;28;20038;-83
2023/03/01 14:17:21;;;;;;;40.72;20.23;;;;;;;;;;4998805;28;20077;-86
2023/03/01 14:19:48;;;;;;;38.03;18.13;;;;;;;;;;5000127;28;20038;-83
2023/03/01 14:22:28;;;;;;;35.40;17.92;;;;;;;;;;4999854;28;20034;-84
2023/03/01 14:24:57;;;;;;;34.03;17.83;;;;;;;;;;5018412;28;20340;-84
2023/03/01 14:27:26;;;;;;;82.30;42.42;;;;;;;;;;5017525;28;20397;-85
2023/03/01 14:29:58;;;;;;;35.80;20.15;;;;;;;;;;5018148;28;20022;-84
2023/03/01 14:32:28;;;;;;;36.33;18.33;;;;;;;;;;5017448;28;20630;-85
2023/03/01 14:34:54;;;;;;;29.55;16.92;;;;;;;;;;5017763;28;20232;-84
2023/03/01 14:37:25;;;;;;;34.22;17.50;;;;;;;;;;5018832;28;20034;-83
2023/03/01 14:39:52;;;;;;;32.65;18.33;;;;;;;;;;5016948;28;20030;-83
2023/03/01 14:42:20;;;;;;;29.75;16.83;;;;;;;;;;5017464;28;20026;-83
2023/03/01 14:44:49;;;;;;;33.65;19.33;;;;;;;;;;5016648;28;20030;-83
2023/03/01 14:47:24;;;;;;;34.30;18.70;;;;;;;;;;5017660;28;20022;-86
2023/03/01 14:49:56;;;;;;;33.78;18.20;;;;;;;;;;5017073;28;20044;-85
2023/03/01 14:52:31;;;;;;;20.85;12.18;;;;;;;;;;5018741;28;20042;-85
2023/03/01 14:54:57;;;;;;;29.38;16.20;;;;;;;;;;5016171;28;20041;-83
2023/03/01 14:57:24;;;;;;;29.25;16.33;;;;;;;;;;5016215;28;20372;-84
2023/03/01 14:59:54;;;;;;;30.42;17.42;;;;;;;;;;5017868;28;20045;-83
2023/03/01 15:02:23;;;;;;;29.98;16.95;;;;;;;;;;5017804;28;20148;-84
2023/03/01 15:05:00;;;;;;;30.52;17.20;;;;;;;;;;5017089;28;20038;-84